createdAt,value
2023-12-09T00:00:06.492Z,2.42
2023-12-09T00:01:07.205Z,2.46
2023-12-09T00:02:06.450Z,2.46
2023-12-09T00:03:06.452Z,2.49
2023-12-09T00:04:06.500Z,2.49
2023-12-09T00:05:06.403Z,2.51
2023-12-09T00:06:06.465Z,2.49
2023-12-09T00:07:06.463Z,2.51
2023-12-09T00:08:06.379Z,2.54
2023-12-09T00:09:06.424Z,2.54
2023-12-09T00:10:06.377Z,2.57
2023-12-09T00:11:06.346Z,2.56
2023-12-09T00:12:06.364Z,2.60
2023-12-09T00:13:06.338Z,2.61
2023-12-09T00:14:06.335Z,2.62
2023-12-09T00:15:06.375Z,2.62
2023-12-09T00:16:06.285Z,2.65
2023-12-09T00:17:06.287Z,2.68
2023-12-09T00:18:06.429Z,2.69
2023-12-09T00:19:06.323Z,2.72
2023-12-09T00:20:06.448Z,2.72
2023-12-09T00:21:06.255Z,2.74
2023-12-09T00:22:06.233Z,2.74
2023-12-09T00:23:06.237Z,2.75
2023-12-09T00:24:06.248Z,2.75
2023-12-09T00:25:06.232Z,2.75
2023-12-09T00:26:06.203Z,2.74
2023-12-09T00:27:06.193Z,2.74
2023-12-09T00:28:06.187Z,2.72
2023-12-09T00:29:06.194Z,2.67
2023-12-09T00:30:06.244Z,2.67
2023-12-09T00:31:06.129Z,2.64
2023-12-09T00:32:06.270Z,2.65
2023-12-09T00:33:06.211Z,2.61
2023-12-09T00:34:06.170Z,2.61
2023-12-09T00:35:06.104Z,2.57
2023-12-09T00:36:06.147Z,2.61
2023-12-09T00:37:06.081Z,2.62
2023-12-09T00:38:06.096Z,2.62
2023-12-09T00:39:06.105Z,2.57
2023-12-09T00:40:06.059Z,2.62
2023-12-09T00:41:06.033Z,2.64
2023-12-09T00:42:06.057Z,2.64
2023-12-09T00:43:06.047Z,2.64
2023-12-09T00:44:06.014Z,2.67
2023-12-09T00:45:06.040Z,2.69
2023-12-09T00:46:06.076Z,2.67
2023-12-09T00:47:05.970Z,2.68
2023-12-09T00:48:06.145Z,2.71
2023-12-09T00:49:06.059Z,2.71
2023-12-09T00:50:05.960Z,2.72
2023-12-09T00:51:05.943Z,2.79
2023-12-09T00:52:05.940Z,2.77
2023-12-09T00:53:05.902Z,2.75
2023-12-09T00:54:05.923Z,2.75
2023-12-09T00:55:05.896Z,2.77
2023-12-09T00:56:05.898Z,2.77
2023-12-09T00:57:05.910Z,2.75
2023-12-09T00:58:05.871Z,2.79
2023-12-09T00:59:05.831Z,2.79
2023-12-09T01:00:05.872Z,2.79
2023-12-09T01:01:05.889Z,2.77
2023-12-09T01:02:05.832Z,2.77
2023-12-09T01:03:05.863Z,2.79
2023-12-09T01:04:05.887Z,2.79
2023-12-09T01:05:05.806Z,2.79
2023-12-09T01:06:05.834Z,2.75
2023-12-09T01:07:05.770Z,2.75
2023-12-09T01:08:05.798Z,2.71
2023-12-09T01:09:05.777Z,2.68
2023-12-09T01:10:05.735Z,2.68
2023-12-09T01:11:05.736Z,2.67
2023-12-09T01:12:05.738Z,2.62
2023-12-09T01:13:05.721Z,2.60
2023-12-09T01:14:05.728Z,2.60
2023-12-09T01:15:05.702Z,2.60
2023-12-09T01:16:05.723Z,2.57
2023-12-09T01:17:05.712Z,2.56
2023-12-09T01:18:05.778Z,2.53
2023-12-09T01:19:05.656Z,2.53
2023-12-09T01:20:05.752Z,2.51
2023-12-09T01:21:05.711Z,2.46
2023-12-09T01:22:05.646Z,2.46
2023-12-09T01:23:05.633Z,2.43
2023-12-09T01:24:05.780Z,2.43
2023-12-09T01:25:05.608Z,2.42
2023-12-09T01:26:05.646Z,2.42
2023-12-09T01:27:05.620Z,2.42
2023-12-09T01:28:05.566Z,2.43
2023-12-09T01:29:05.646Z,2.43
2023-12-09T01:30:05.601Z,2.42
2023-12-09T01:31:05.511Z,2.43
2023-12-09T01:32:05.540Z,2.44
2023-12-09T01:33:05.788Z,2.44
2023-12-09T01:34:05.671Z,2.42
2023-12-09T01:35:05.506Z,2.42
2023-12-09T01:36:05.538Z,2.38
2023-12-09T01:37:05.505Z,2.36
2023-12-09T01:38:05.460Z,2.38
2023-12-09T01:39:05.460Z,2.38
2023-12-09T01:40:05.440Z,2.39
2023-12-09T01:41:05.438Z,2.43
2023-12-09T01:42:05.461Z,2.46
2023-12-09T01:43:05.460Z,2.44
2023-12-09T01:44:05.431Z,2.47
2023-12-09T01:45:05.429Z,2.51
2023-12-09T01:46:05.391Z,2.51
2023-12-09T01:47:05.371Z,2.53
2023-12-09T01:48:05.605Z,2.56
2023-12-09T01:49:05.536Z,2.53
2023-12-09T01:50:05.571Z,2.54
2023-12-09T01:51:05.350Z,2.56
2023-12-09T01:52:05.305Z,2.60
2023-12-09T01:53:05.322Z,2.57
2023-12-09T01:54:05.357Z,2.60
2023-12-09T01:55:05.272Z,2.64
2023-12-09T01:56:05.284Z,2.64
2023-12-09T01:57:05.273Z,2.64
2023-12-09T01:58:05.313Z,2.67
2023-12-09T01:59:05.260Z,2.67
2023-12-09T02:00:05.349Z,2.68
2023-12-09T02:01:05.258Z,2.67
2023-12-09T02:02:05.258Z,2.69
2023-12-09T02:03:05.369Z,2.69
2023-12-09T02:04:05.421Z,2.71
2023-12-09T02:05:05.196Z,2.71
2023-12-09T02:06:05.218Z,2.72
2023-12-09T02:07:05.185Z,2.72
2023-12-09T02:08:05.163Z,2.72
2023-12-09T02:09:05.201Z,2.72
2023-12-09T02:10:05.143Z,2.75
2023-12-09T02:11:05.138Z,2.79
2023-12-09T02:12:05.175Z,2.74
2023-12-09T02:13:05.132Z,2.79
2023-12-09T02:14:05.115Z,2.79
2023-12-09T02:15:05.278Z,2.80
2023-12-09T02:16:05.090Z,2.83
2023-12-09T02:17:05.074Z,2.83
2023-12-09T02:18:05.199Z,2.85
2023-12-09T02:19:05.153Z,2.85
2023-12-09T02:20:05.034Z,2.85
2023-12-09T02:21:05.124Z,2.85
2023-12-09T02:22:05.041Z,2.85
2023-12-09T02:23:04.990Z,2.85
2023-12-09T02:24:05.044Z,2.82
2023-12-09T02:25:05.005Z,2.86
2023-12-09T02:26:05.000Z,2.83
2023-12-09T02:27:05.003Z,2.83
2023-12-09T02:28:04.952Z,2.86
2023-12-09T02:29:04.931Z,2.86
2023-12-09T02:30:05.033Z,2.86
2023-12-09T02:31:04.928Z,2.86
2023-12-09T02:32:04.924Z,2.82
2023-12-09T02:33:05.037Z,2.83
2023-12-09T02:34:05.060Z,2.85
2023-12-09T02:35:04.862Z,2.85
2023-12-09T02:36:04.912Z,2.86
2023-12-09T02:37:04.866Z,2.85
2023-12-09T02:38:04.885Z,2.87
2023-12-09T02:39:04.883Z,2.87
2023-12-09T02:40:04.837Z,2.87
2023-12-09T02:41:04.836Z,2.89
2023-12-09T02:42:04.878Z,2.87
2023-12-09T02:43:04.800Z,2.90
2023-12-09T02:44:04.771Z,2.92
2023-12-09T02:45:04.806Z,2.93
2023-12-09T02:46:04.768Z,2.93
2023-12-09T02:47:04.776Z,2.95
2023-12-09T02:48:05.003Z,2.97
2023-12-09T02:49:04.866Z,2.97
2023-12-09T02:51:32.804Z,2.98
2023-12-09T02:51:38.217Z,2.97
2023-12-09T02:52:38.173Z,2.98
2023-12-09T02:53:38.158Z,3.00
2023-12-09T02:54:38.131Z,3.00
2023-12-09T02:55:38.127Z,3.00
2023-12-09T02:56:38.140Z,2.97
2023-12-09T02:57:38.150Z,2.98
2023-12-09T02:58:38.113Z,2.98
2023-12-09T02:59:38.092Z,3.00
2023-12-09T03:00:38.535Z,3.00
2023-12-09T03:01:38.094Z,3.00
2023-12-09T03:02:38.087Z,3.03
2023-12-09T03:03:38.141Z,3.01
2023-12-09T03:04:38.144Z,3.00
2023-12-09T03:05:38.039Z,3.00
2023-12-09T03:06:37.997Z,3.00
2023-12-09T03:07:38.009Z,2.98
2023-12-09T03:08:37.963Z,2.97
2023-12-09T03:09:38.042Z,2.97
2023-12-09T03:10:37.967Z,2.93
2023-12-09T03:11:37.976Z,2.93
2023-12-09T03:12:37.987Z,2.92
2023-12-09T03:13:37.949Z,2.89
2023-12-09T03:14:37.947Z,2.87
2023-12-09T03:15:37.956Z,2.85
2023-12-09T03:16:38.030Z,2.85
2023-12-09T03:17:38.089Z,2.82
2023-12-09T03:18:37.983Z,2.82
2023-12-09T03:19:37.914Z,2.80
2023-12-09T03:20:37.882Z,2.79
2023-12-09T03:21:37.854Z,2.80
2023-12-09T03:22:37.849Z,2.82
2023-12-09T03:23:37.827Z,2.82
2023-12-09T03:24:37.859Z,2.83
2023-12-09T03:25:37.813Z,2.85
2023-12-09T03:26:37.813Z,2.83
2023-12-09T03:27:37.870Z,2.85
2023-12-09T03:28:37.788Z,2.87
2023-12-09T03:29:37.772Z,2.86
2023-12-09T03:30:37.824Z,2.87
2023-12-09T03:31:37.768Z,2.87
2023-12-09T03:32:37.773Z,2.89
2023-12-09T03:33:37.922Z,2.86
2023-12-09T03:34:37.787Z,2.83
2023-12-09T03:35:37.722Z,2.83
2023-12-09T03:36:37.782Z,2.85
2023-12-09T03:37:37.728Z,2.86
2023-12-09T03:38:37.703Z,2.87
2023-12-09T03:39:37.717Z,2.87
2023-12-09T03:40:37.668Z,2.86
2023-12-09T03:41:37.648Z,2.86
2023-12-09T03:42:37.692Z,2.86
2023-12-09T03:43:37.715Z,2.86
2023-12-09T03:44:37.656Z,2.86
2023-12-09T03:45:37.653Z,2.87
2023-12-09T03:46:37.625Z,2.87
2023-12-09T03:47:37.646Z,2.89
2023-12-09T03:48:37.737Z,2.90
2023-12-09T03:49:37.728Z,2.90
2023-12-09T03:50:37.571Z,2.93
2023-12-09T03:51:37.607Z,2.93
2023-12-09T03:52:37.586Z,2.92
2023-12-09T03:53:37.540Z,2.92
2023-12-09T03:54:37.734Z,2.92
2023-12-09T03:55:37.515Z,2.89
2023-12-09T03:56:37.502Z,2.90
2023-12-09T03:57:37.904Z,2.87
2023-12-09T03:58:37.494Z,2.86
2023-12-09T03:59:37.474Z,2.83
2023-12-09T04:00:37.594Z,2.82
2023-12-09T04:01:37.549Z,2.79
2023-12-09T04:02:37.467Z,2.74
2023-12-09T04:03:37.632Z,2.74
2023-12-09T04:04:37.457Z,2.72
2023-12-09T04:05:37.486Z,2.72
2023-12-09T04:06:37.463Z,2.72
2023-12-09T04:07:37.419Z,2.67
2023-12-09T04:08:37.390Z,2.68
2023-12-09T04:09:37.444Z,2.67
2023-12-09T04:10:37.394Z,2.71
2023-12-09T04:11:37.360Z,2.69
2023-12-09T04:12:37.381Z,2.71
2023-12-09T04:13:37.332Z,2.71
2023-12-09T04:14:37.346Z,2.71
2023-12-09T04:15:37.448Z,2.69
2023-12-09T04:16:37.335Z,2.71
2023-12-09T04:17:37.351Z,2.67
2023-12-09T04:18:37.508Z,2.68
2023-12-09T04:19:37.365Z,2.67
2023-12-09T04:20:37.379Z,2.65
2023-12-09T04:21:37.312Z,2.65
2023-12-09T04:22:37.258Z,2.64
2023-12-09T04:23:37.247Z,2.65
2023-12-09T04:24:37.317Z,2.67
2023-12-09T04:25:37.222Z,2.62
2023-12-09T04:26:37.244Z,2.65
2023-12-09T04:27:37.232Z,2.64
2023-12-09T04:28:37.189Z,2.65
2023-12-09T04:29:37.198Z,2.65
2023-12-09T04:30:37.210Z,2.64
2023-12-09T04:31:37.185Z,2.61
2023-12-09T04:32:37.197Z,2.61
2023-12-09T04:33:37.223Z,2.62
2023-12-09T04:34:37.154Z,2.57
2023-12-09T04:35:37.102Z,2.60
2023-12-09T04:36:37.264Z,2.60
2023-12-09T04:37:37.101Z,2.57
2023-12-09T04:38:37.082Z,2.60
2023-12-09T04:39:37.145Z,2.57
2023-12-09T04:40:37.085Z,2.60
2023-12-09T04:41:37.071Z,2.56
2023-12-09T04:42:37.080Z,2.56
2023-12-09T04:43:37.034Z,2.57
2023-12-09T04:44:37.026Z,2.60
2023-12-09T04:45:37.057Z,2.57
2023-12-09T04:46:37.019Z,2.56
2023-12-09T04:47:37.090Z,2.60
2023-12-09T04:48:37.080Z,2.61
2023-12-09T04:49:37.199Z,2.61
2023-12-09T04:50:36.975Z,2.61
2023-12-09T04:51:36.996Z,2.62
2023-12-09T04:52:36.966Z,2.67
2023-12-09T04:53:39.861Z,2.68
2023-12-09T04:54:36.981Z,2.71
2023-12-09T04:55:36.925Z,2.69
2023-12-09T04:56:36.934Z,2.74
2023-12-09T04:57:36.987Z,2.75
2023-12-09T04:58:36.891Z,2.77
2023-12-09T04:59:36.874Z,2.79
2023-12-09T05:00:36.893Z,2.79
2023-12-09T05:01:36.848Z,2.79
2023-12-09T05:02:36.918Z,2.80
2023-12-09T05:03:36.976Z,2.79
2023-12-09T05:04:36.854Z,2.82
2023-12-09T05:05:36.884Z,2.83
2023-12-09T05:06:36.838Z,2.83
2023-12-09T05:07:36.800Z,2.82
2023-12-09T05:08:36.838Z,2.83
2023-12-09T05:09:36.792Z,2.86
2023-12-09T05:10:36.749Z,2.87
2023-12-09T05:11:36.748Z,2.86
2023-12-09T05:12:36.788Z,2.89
2023-12-09T05:13:36.738Z,2.89
2023-12-09T05:14:36.724Z,2.87
2023-12-09T05:15:36.774Z,2.87
2023-12-09T05:16:36.702Z,2.89
2023-12-09T05:17:36.707Z,2.85
2023-12-09T05:18:36.808Z,2.83
2023-12-09T05:19:36.891Z,2.80
2023-12-09T05:20:36.653Z,2.80
2023-12-09T05:21:36.977Z,2.79
2023-12-09T05:22:36.630Z,2.80
2023-12-09T05:23:36.636Z,2.79
2023-12-09T05:24:36.658Z,2.77
2023-12-09T05:25:36.616Z,2.72
2023-12-09T05:26:36.602Z,2.74
2023-12-09T05:27:36.594Z,2.74
2023-12-09T05:28:36.616Z,2.74
2023-12-09T05:29:36.566Z,2.74
2023-12-09T05:30:36.599Z,2.74
2023-12-09T05:31:36.561Z,2.75
2023-12-09T05:32:36.588Z,2.74
2023-12-09T05:33:36.718Z,2.74
2023-12-09T05:34:36.561Z,2.71
2023-12-09T05:35:36.516Z,2.71
2023-12-09T05:36:36.552Z,2.71
2023-12-09T05:37:36.525Z,2.74
2023-12-09T05:38:36.474Z,2.74
2023-12-09T05:39:36.549Z,2.72
2023-12-09T05:40:36.444Z,2.69
2023-12-09T05:41:36.445Z,2.71
2023-12-09T05:42:36.460Z,2.71
2023-12-09T05:43:36.467Z,2.68
2023-12-09T05:44:36.422Z,2.69
2023-12-09T05:45:36.460Z,2.71
2023-12-09T05:46:36.403Z,2.72
2023-12-09T05:47:36.503Z,2.72
2023-12-09T05:48:36.520Z,2.72
2023-12-09T05:49:36.443Z,2.74
2023-12-09T05:50:36.372Z,2.72
2023-12-09T05:51:36.387Z,2.72
2023-12-09T05:52:36.329Z,2.68
2023-12-09T05:53:36.325Z,2.71
2023-12-09T05:54:36.385Z,2.69
2023-12-09T05:55:36.295Z,2.69
2023-12-09T05:56:36.309Z,2.68
2023-12-09T05:57:36.394Z,2.69
2023-12-09T05:58:36.283Z,2.68
2023-12-09T05:59:36.306Z,2.69
2023-12-09T06:00:37.234Z,2.68
2023-12-09T06:01:36.284Z,2.67
2023-12-09T06:02:36.245Z,2.68
2023-12-09T06:03:36.332Z,2.69
2023-12-09T06:04:36.319Z,2.68
2023-12-09T06:05:36.251Z,2.68
2023-12-09T06:06:36.270Z,2.67
2023-12-09T06:07:36.194Z,2.65
2023-12-09T06:08:36.157Z,2.61
2023-12-09T06:09:36.286Z,2.62
2023-12-09T06:10:36.171Z,2.61
2023-12-09T06:11:36.143Z,2.57
2023-12-09T06:12:36.155Z,2.60
2023-12-09T06:13:36.095Z,2.56
2023-12-09T06:14:36.109Z,2.53
2023-12-09T06:15:36.201Z,2.51
2023-12-09T06:16:36.102Z,2.54
2023-12-09T06:17:36.178Z,2.51
2023-12-09T06:18:36.081Z,2.51
2023-12-09T06:19:36.081Z,2.51
2023-12-09T06:20:36.055Z,2.53
2023-12-09T06:21:36.109Z,2.50
2023-12-09T06:22:36.030Z,2.50
2023-12-09T06:23:36.012Z,2.54
2023-12-09T06:24:36.078Z,2.54
2023-12-09T06:25:35.983Z,2.56
2023-12-09T06:26:36.006Z,2.57
2023-12-09T06:27:35.986Z,2.60
2023-12-09T06:28:35.965Z,2.61
2023-12-09T06:29:35.935Z,2.60
2023-12-09T06:30:35.970Z,2.61
2023-12-09T06:31:35.948Z,2.61
2023-12-09T06:32:35.960Z,2.62
2023-12-09T06:33:36.042Z,2.62
2023-12-09T06:34:36.011Z,2.61
2023-12-09T06:35:35.904Z,2.61
2023-12-09T06:36:35.960Z,2.62
2023-12-09T06:37:35.914Z,2.60
2023-12-09T06:38:35.850Z,2.57
2023-12-09T06:39:35.863Z,2.57
2023-12-09T06:40:35.860Z,2.56
2023-12-09T06:41:35.844Z,2.57
2023-12-09T06:42:35.836Z,2.54
2023-12-09T06:43:35.823Z,2.54
2023-12-09T06:44:35.808Z,2.56
2023-12-09T06:45:35.806Z,2.53
2023-12-09T06:46:35.800Z,2.56
2023-12-09T06:47:35.829Z,2.54
2023-12-09T06:48:35.872Z,2.54
2023-12-09T06:49:35.793Z,2.56
2023-12-09T06:50:35.736Z,2.56
2023-12-09T06:51:35.742Z,2.60
2023-12-09T06:52:35.706Z,2.60
2023-12-09T06:53:35.691Z,2.57
2023-12-09T06:54:35.735Z,2.57
2023-12-09T06:55:35.689Z,2.60
2023-12-09T06:56:35.709Z,2.60
2023-12-09T06:57:36.050Z,2.60
2023-12-09T06:58:35.672Z,2.57
2023-12-09T06:59:35.638Z,2.57
2023-12-09T07:00:35.692Z,2.56
2023-12-09T07:01:35.661Z,2.56
2023-12-09T07:02:44.795Z,2.53
2023-12-09T07:03:35.645Z,2.56
2023-12-09T07:04:35.689Z,2.57
2023-12-09T07:05:36.346Z,2.57
2023-12-09T07:06:35.655Z,2.60
2023-12-09T07:07:35.552Z,2.62
2023-12-09T07:08:35.556Z,2.65
2023-12-09T07:09:35.581Z,2.68
2023-12-09T07:10:35.590Z,2.69
2023-12-09T07:11:35.598Z,2.71
2023-12-09T07:12:35.518Z,2.71
2023-12-09T07:13:35.510Z,2.74
2023-12-09T07:14:35.488Z,2.75
2023-12-09T07:15:35.555Z,2.80
2023-12-09T07:16:35.507Z,2.82
2023-12-09T07:17:35.468Z,2.82
2023-12-09T07:18:35.580Z,2.83
2023-12-09T07:19:35.630Z,2.83
2023-12-09T07:20:35.432Z,2.85
2023-12-09T07:21:35.738Z,2.83
2023-12-09T07:22:35.409Z,2.85
2023-12-09T07:23:35.406Z,2.85
2023-12-09T07:24:35.489Z,2.85
2023-12-09T07:25:35.386Z,2.85
2023-12-09T07:26:35.372Z,2.83
2023-12-09T07:27:35.435Z,2.82
2023-12-09T07:28:35.349Z,2.82
2023-12-09T07:29:35.329Z,2.82
2023-12-09T07:30:35.344Z,2.82
2023-12-09T07:31:35.344Z,2.80
2023-12-09T07:32:35.439Z,2.79
2023-12-09T07:33:35.408Z,2.82
2023-12-09T07:34:35.373Z,2.79
2023-12-09T07:35:35.342Z,2.79
2023-12-09T07:36:35.288Z,2.77
2023-12-09T07:37:35.323Z,2.77
2023-12-09T07:38:35.263Z,2.77
2023-12-09T07:39:35.256Z,2.77
2023-12-09T07:40:35.224Z,2.77
2023-12-09T07:41:35.221Z,2.80
2023-12-09T07:42:35.264Z,2.82
2023-12-09T07:43:37.217Z,2.82
2023-12-09T07:44:35.198Z,2.83
2023-12-09T07:45:35.212Z,2.83
2023-12-09T07:46:35.179Z,2.87
2023-12-09T07:47:35.172Z,2.89
2023-12-09T07:48:35.305Z,2.90
2023-12-09T07:49:35.182Z,2.93
2023-12-09T07:50:35.106Z,2.93
2023-12-09T07:51:35.231Z,2.92
2023-12-09T07:52:35.109Z,2.90
2023-12-09T07:53:35.073Z,2.90
2023-12-09T07:54:35.121Z,2.89
2023-12-09T07:55:35.054Z,2.89
2023-12-09T07:56:35.057Z,2.86
2023-12-09T07:57:35.138Z,2.86
2023-12-09T07:58:35.048Z,2.82
2023-12-09T07:59:35.040Z,2.82
2023-12-09T08:00:35.063Z,2.82
2023-12-09T08:01:35.068Z,2.79
2023-12-09T08:02:35.003Z,2.77
2023-12-09T08:03:35.073Z,2.75
2023-12-09T08:04:35.011Z,2.77
2023-12-09T08:05:35.026Z,2.77
2023-12-09T08:06:35.002Z,2.74
2023-12-09T08:07:34.966Z,2.75
2023-12-09T08:08:34.930Z,2.71
2023-12-09T08:09:34.940Z,2.69
2023-12-09T08:10:34.909Z,2.69
2023-12-09T08:11:34.914Z,2.69
2023-12-09T08:12:34.943Z,2.68
2023-12-09T08:13:34.894Z,2.67
2023-12-09T08:14:34.869Z,2.65
2023-12-09T08:15:34.893Z,2.64
2023-12-09T08:16:34.828Z,2.62
2023-12-09T08:17:34.851Z,2.65
2023-12-09T08:18:34.917Z,2.61
2023-12-09T08:19:35.010Z,2.61
2023-12-09T08:20:34.801Z,2.61
2023-12-09T08:21:34.859Z,2.57
2023-12-09T08:22:34.815Z,2.60
2023-12-09T08:23:34.767Z,2.60
2023-12-09T08:24:34.983Z,2.60
2023-12-09T08:25:34.786Z,2.62
2023-12-09T08:26:34.760Z,2.64
2023-12-09T08:27:34.877Z,2.65
2023-12-09T08:28:34.772Z,2.67
2023-12-09T08:29:34.772Z,2.68
2023-12-09T08:30:34.849Z,2.68
2023-12-09T08:31:34.695Z,2.68
2023-12-09T08:32:34.773Z,2.68
2023-12-09T08:33:34.788Z,2.69
2023-12-09T08:34:34.779Z,2.68
2023-12-09T08:35:34.700Z,2.65
2023-12-09T08:36:34.700Z,2.64
2023-12-09T08:37:34.653Z,2.64
2023-12-09T08:38:34.633Z,2.65
2023-12-09T08:39:34.659Z,2.65
2023-12-09T08:40:34.664Z,2.67
2023-12-09T08:41:34.586Z,2.65
2023-12-09T08:42:34.657Z,2.65
2023-12-09T08:43:34.624Z,2.68
2023-12-09T08:44:34.546Z,2.68
2023-12-09T08:45:34.577Z,2.69
2023-12-09T08:46:34.556Z,2.71
2023-12-09T08:47:34.532Z,2.74
2023-12-09T08:48:34.749Z,2.71
2023-12-09T08:49:34.572Z,2.72
2023-12-09T08:50:34.483Z,2.74
2023-12-09T08:51:34.542Z,2.68
2023-12-09T08:52:34.476Z,2.74
2023-12-09T08:53:34.498Z,2.74
2023-12-09T08:54:34.501Z,2.75
2023-12-09T08:55:34.446Z,2.79
2023-12-09T08:56:34.518Z,2.82
2023-12-09T08:57:34.430Z,2.82
2023-12-09T08:58:34.451Z,2.83
2023-12-09T08:59:34.394Z,2.85
2023-12-09T09:00:34.511Z,2.87
2023-12-09T09:01:34.471Z,2.87
2023-12-09T09:02:34.354Z,2.89
2023-12-09T09:03:34.417Z,2.90
2023-12-09T09:04:34.384Z,2.92
2023-12-09T09:05:34.379Z,2.92
2023-12-09T09:06:34.394Z,2.92
2023-12-09T09:07:34.344Z,2.89
2023-12-09T09:08:34.324Z,2.90
2023-12-09T09:09:34.360Z,2.92
2023-12-09T09:10:34.306Z,2.90
2023-12-09T09:11:34.300Z,2.92
2023-12-09T09:12:34.293Z,2.90
2023-12-09T09:13:34.270Z,2.90
2023-12-09T09:14:34.271Z,2.90
2023-12-09T09:15:34.256Z,2.89
2023-12-09T09:16:34.219Z,2.92
2023-12-09T09:17:34.245Z,2.90
2023-12-09T09:18:34.408Z,2.89
2023-12-09T09:19:34.330Z,2.89
2023-12-09T09:20:34.198Z,2.89
2023-12-09T09:21:34.193Z,2.87
2023-12-09T09:22:34.229Z,2.87
2023-12-09T09:23:34.166Z,2.89
2023-12-09T09:24:34.234Z,2.89
2023-12-09T09:25:34.138Z,2.89
2023-12-09T09:26:34.131Z,2.87
2023-12-09T09:27:34.193Z,2.90
2023-12-09T09:28:34.132Z,2.90
2023-12-09T09:29:34.114Z,2.93
2023-12-09T09:30:34.133Z,2.89
2023-12-09T09:31:34.090Z,2.90
2023-12-09T09:32:34.114Z,2.93
2023-12-09T09:33:34.179Z,2.90
2023-12-09T09:34:34.207Z,2.90
2023-12-09T09:35:34.051Z,2.89
2023-12-09T09:36:34.134Z,2.89
2023-12-09T09:37:34.019Z,2.86
2023-12-09T09:38:34.029Z,2.85
2023-12-09T09:39:34.042Z,2.85
2023-12-09T09:40:33.997Z,2.83
2023-12-09T09:41:33.980Z,2.83
2023-12-09T09:42:34.002Z,2.85
2023-12-09T09:43:33.956Z,2.87
2023-12-09T09:44:33.961Z,2.83
2023-12-09T09:45:34.044Z,2.83
2023-12-09T09:46:33.932Z,2.83
2023-12-09T09:47:34.002Z,2.85
2023-12-09T09:48:34.113Z,2.87
2023-12-09T09:49:34.054Z,2.86
2023-12-09T09:50:33.937Z,2.86
2023-12-09T09:51:33.944Z,2.83
2023-12-09T09:52:33.865Z,2.86
2023-12-09T09:53:33.864Z,2.86
2023-12-09T09:54:33.984Z,2.86
2023-12-09T09:55:33.843Z,2.87
2023-12-09T09:56:33.872Z,2.87
2023-12-09T09:57:33.895Z,2.90
2023-12-09T09:58:33.818Z,2.89
2023-12-09T09:59:33.786Z,2.87
2023-12-09T10:00:33.835Z,2.90
2023-12-09T10:01:33.878Z,2.89
2023-12-09T10:02:33.761Z,2.89
2023-12-09T10:03:33.803Z,2.86
2023-12-09T10:04:33.785Z,2.83
2023-12-09T10:05:33.738Z,2.85
2023-12-09T10:06:33.779Z,2.85
2023-12-09T10:07:33.838Z,2.86
2023-12-09T10:08:33.718Z,2.82
2023-12-09T10:09:33.783Z,2.82
2023-12-09T10:10:33.675Z,2.79
2023-12-09T10:11:33.690Z,2.79
2023-12-09T10:12:33.724Z,2.82
2023-12-09T10:13:33.664Z,2.80
2023-12-09T10:14:33.655Z,2.82
2023-12-09T10:15:33.866Z,2.83
2023-12-09T10:16:33.634Z,2.82
2023-12-09T10:17:33.681Z,2.83
2023-12-09T10:18:33.696Z,2.86
2023-12-09T10:19:33.721Z,2.86
2023-12-09T10:20:33.588Z,2.85
2023-12-09T10:21:33.586Z,2.83
2023-12-09T10:22:33.600Z,2.85
2023-12-09T10:23:33.560Z,2.85
2023-12-09T10:24:33.589Z,2.89
2023-12-09T10:25:33.532Z,2.89
2023-12-09T10:26:33.514Z,2.92
2023-12-09T10:27:33.626Z,2.93
2023-12-09T10:28:33.786Z,2.95
2023-12-09T10:29:33.486Z,2.98
2023-12-09T10:30:33.529Z,3.00
2023-12-09T10:31:33.485Z,3.03
2023-12-09T10:32:33.738Z,3.05
2023-12-09T10:33:33.629Z,3.07
2023-12-09T10:34:33.465Z,3.10
2023-12-09T10:35:33.429Z,3.10
2023-12-09T10:36:33.434Z,3.10
2023-12-09T10:37:33.412Z,3.13
2023-12-09T10:38:33.404Z,3.13
2023-12-09T10:39:33.471Z,3.14
2023-12-09T10:40:33.405Z,3.14
2023-12-09T10:41:33.378Z,3.16
2023-12-09T10:42:33.373Z,3.13
2023-12-09T10:43:33.382Z,3.16
2023-12-09T10:44:33.354Z,3.13
2023-12-09T10:45:33.363Z,3.14
2023-12-09T10:46:34.987Z,3.13
2023-12-09T10:47:33.427Z,3.16
2023-12-09T10:48:33.418Z,3.14
2023-12-09T10:49:33.398Z,3.14
2023-12-09T10:50:33.293Z,3.13
2023-12-09T10:51:33.324Z,3.14
2023-12-09T10:52:35.231Z,3.13
2023-12-09T10:53:33.248Z,3.13
2023-12-09T10:54:33.257Z,3.14
2023-12-09T10:55:33.236Z,3.14
2023-12-09T10:56:33.226Z,3.13
2023-12-09T10:57:33.242Z,3.14
2023-12-09T10:58:34.552Z,3.16
2023-12-09T10:59:33.253Z,3.14
2023-12-09T11:00:33.214Z,3.14
2023-12-09T11:01:33.239Z,3.16
2023-12-09T11:02:33.153Z,3.18
2023-12-09T11:03:33.227Z,3.18
2023-12-09T11:04:34.494Z,3.19
2023-12-09T11:05:33.170Z,3.19
2023-12-09T11:06:33.177Z,3.21
2023-12-09T11:07:33.124Z,3.21
2023-12-09T11:08:33.110Z,3.23
2023-12-09T11:09:33.139Z,3.25
2023-12-09T11:10:33.106Z,3.25
2023-12-09T11:11:33.070Z,3.26
2023-12-09T11:12:33.061Z,3.25
2023-12-09T11:13:33.084Z,3.28
2023-12-09T11:14:33.081Z,3.29
2023-12-09T11:15:33.140Z,3.32
2023-12-09T11:16:33.037Z,3.40
2023-12-09T11:17:33.141Z,3.41
2023-12-09T11:18:33.278Z,3.42
2023-12-09T11:19:33.087Z,3.41
2023-12-09T11:20:33.037Z,3.41
2023-12-09T11:21:33.053Z,3.44
2023-12-09T11:22:32.976Z,3.44
2023-12-09T11:23:32.952Z,3.44
2023-12-09T11:24:32.984Z,3.44
2023-12-09T11:25:32.995Z,3.42
2023-12-09T11:26:32.905Z,3.41
2023-12-09T11:27:32.946Z,3.44
2023-12-09T11:28:32.892Z,3.45
2023-12-09T11:29:32.894Z,3.47
2023-12-09T11:30:33.003Z,3.48
2023-12-09T11:31:32.916Z,3.47
2023-12-09T11:32:32.878Z,3.48
2023-12-09T11:33:32.948Z,3.51
2023-12-09T11:34:33.001Z,3.51
2023-12-09T11:35:32.837Z,3.50
2023-12-09T11:36:32.857Z,3.51
2023-12-09T11:37:32.836Z,3.50
2023-12-09T11:38:32.798Z,3.51
2023-12-09T11:39:32.831Z,3.53
2023-12-09T11:40:32.778Z,3.51
2023-12-09T11:41:32.782Z,3.47
2023-12-09T11:42:32.818Z,3.48
2023-12-09T11:43:32.762Z,3.50
2023-12-09T11:44:32.746Z,3.50
2023-12-09T11:45:32.856Z,3.48
2023-12-09T11:46:32.744Z,3.48
2023-12-09T11:47:32.806Z,3.45
2023-12-09T11:48:32.829Z,3.45
2023-12-09T11:49:32.800Z,3.45
2023-12-09T11:50:32.721Z,3.45
2023-12-09T11:51:32.735Z,3.45
2023-12-09T11:52:32.657Z,3.44
2023-12-09T11:53:32.657Z,3.45
2023-12-09T11:54:32.657Z,3.45
2023-12-09T11:55:32.656Z,3.45
2023-12-09T11:56:32.845Z,3.45
2023-12-09T11:57:32.630Z,3.45
2023-12-09T11:58:32.593Z,3.45
2023-12-09T11:59:32.610Z,3.45
2023-12-09T12:00:32.722Z,3.50
2023-12-09T12:01:32.599Z,3.50
2023-12-09T12:02:32.584Z,3.47
2023-12-09T12:03:32.710Z,3.48
2023-12-09T12:04:32.532Z,3.47
2023-12-09T12:05:32.531Z,3.44
2023-12-09T12:06:32.652Z,3.44
2023-12-09T12:07:32.534Z,3.41
2023-12-09T12:08:32.499Z,3.44
2023-12-09T12:09:32.496Z,3.44
2023-12-09T12:10:32.492Z,3.44
2023-12-09T12:11:32.468Z,3.44
2023-12-09T12:12:32.567Z,3.45
2023-12-09T12:13:32.435Z,3.44
2023-12-09T12:14:32.449Z,3.42
2023-12-09T12:15:32.463Z,3.44
2023-12-09T12:16:32.418Z,3.40
2023-12-09T12:17:32.442Z,3.37
2023-12-09T12:18:32.522Z,3.37
2023-12-09T12:19:32.478Z,3.34
2023-12-09T12:20:32.388Z,3.34
2023-12-09T12:21:32.411Z,3.32
2023-12-09T12:22:32.374Z,3.32
2023-12-09T12:23:33.234Z,3.31
2023-12-09T12:24:32.348Z,3.29
2023-12-09T12:25:32.320Z,3.29
2023-12-09T12:26:32.317Z,3.26
2023-12-09T12:27:32.384Z,3.25
2023-12-09T12:28:32.291Z,3.25
2023-12-09T12:29:32.275Z,3.23
2023-12-09T12:30:32.358Z,3.21
2023-12-09T12:31:32.257Z,3.22
2023-12-09T12:32:32.349Z,3.23
2023-12-09T12:33:32.593Z,3.22
2023-12-09T12:34:32.301Z,3.25
2023-12-09T12:35:32.236Z,3.23
2023-12-09T12:36:32.250Z,3.22
2023-12-09T12:37:32.239Z,3.23
2023-12-09T12:38:32.199Z,3.25
2023-12-09T12:39:32.219Z,3.26
2023-12-09T12:40:32.192Z,3.26
2023-12-09T12:41:32.180Z,3.26
2023-12-09T12:42:32.681Z,3.28
2023-12-09T12:43:32.662Z,3.31
2023-12-09T12:44:32.121Z,3.32
2023-12-09T12:45:32.152Z,3.34
2023-12-09T12:46:32.128Z,3.36
2023-12-09T12:47:32.168Z,3.36
2023-12-09T12:48:32.307Z,3.36
2023-12-09T12:49:32.124Z,3.36
2023-12-09T12:50:32.083Z,3.40
2023-12-09T12:51:32.089Z,3.40
2023-12-09T12:52:32.064Z,3.42
2023-12-09T12:53:32.052Z,3.40
2023-12-09T12:54:32.027Z,3.41
2023-12-09T12:55:32.025Z,3.40
2023-12-09T12:56:31.996Z,3.41
2023-12-09T12:57:32.032Z,3.42
2023-12-09T12:58:32.039Z,3.42
2023-12-09T12:59:31.979Z,3.41
2023-12-09T13:00:32.085Z,3.41
2023-12-09T13:01:32.071Z,3.42
2023-12-09T13:02:31.965Z,3.41
2023-12-09T13:03:31.960Z,3.41
2023-12-09T13:04:32.032Z,3.40
2023-12-09T13:05:31.941Z,3.37
2023-12-09T13:06:32.046Z,3.40
2023-12-09T13:07:31.891Z,3.42
2023-12-09T13:08:31.875Z,3.42
2023-12-09T13:09:31.933Z,3.42
2023-12-09T13:10:31.867Z,3.44
2023-12-09T13:11:31.836Z,3.47
2023-12-09T13:12:31.928Z,3.47
2023-12-09T13:13:31.826Z,3.48
2023-12-09T13:14:31.861Z,3.48
2023-12-09T13:15:31.877Z,3.51
2023-12-09T13:16:31.807Z,3.55
2023-12-09T13:17:31.873Z,3.56
2023-12-09T13:18:31.836Z,3.56